Schedule Details


Flight Number: CTN530
Departure: Franjo Tudman (LDZA) at 14:20
Arrival: Pulkovo (ULLI) at 18:00
Route: OBUTI?DCT?DIMLO?DCT?LEDVA?L156?SOPAV?T709?KOTEK?M866?GERVI?M857?BOKSU?M985?ERIVA?Y237?GATVA?Z494?NUMSU?M990?RISAT?R108?KOLET

Weather Information
LDZA 221630Z VRB02KT CAVOK 18/12 Q1016 NOSIG
ULLI 221630Z 34005MPS 9999 BKN032 06/00 Q1015 R88/290050 NOSIG
Schedule Frequency

Route Map